createdAt,value
2023-04-10T00:00:39.360Z,32.73
2023-04-10T00:03:09.088Z,34.73
2023-04-10T00:05:37.424Z,34.67
2023-04-10T00:08:06.108Z,33.97
2023-04-10T00:10:34.266Z,38.47
2023-04-10T00:13:03.670Z,34.43
2023-04-10T00:15:31.844Z,33.37
2023-04-10T00:18:00.036Z,35.83
2023-04-10T00:20:29.641Z,30.40
2023-04-10T00:22:57.789Z,35.07
2023-04-10T00:25:26.632Z,34.03
2023-04-10T00:27:55.276Z,29.90
2023-04-10T00:30:23.470Z,31.20
2023-04-10T00:32:51.635Z,32.67
2023-04-10T00:35:19.931Z,29.67
2023-04-10T00:37:50.294Z,31.73
2023-04-10T00:40:18.482Z,31.50
2023-04-10T00:42:46.641Z,32.73
2023-04-10T00:45:14.808Z,30.80
2023-04-10T00:47:43.041Z,32.07
2023-04-10T00:50:12.134Z,33.23
2023-04-10T00:52:40.460Z,33.17
2023-04-10T00:55:11.920Z,31.67
2023-04-10T00:57:40.387Z,30.50
2023-04-10T01:00:09.928Z,32.33
2023-04-10T01:02:38.335Z,34.87
2023-04-10T01:05:07.474Z,37.07
2023-04-10T01:07:48.113Z,33.13
2023-04-10T01:10:22.691Z,31.33
2023-04-10T01:13:00.987Z,33.13
2023-04-10T01:15:31.984Z,35.03
2023-04-10T01:18:05.836Z,28.73
2023-04-10T01:20:39.336Z,32.27
2023-04-10T01:23:42.135Z,32.07
2023-04-10T01:26:12.484Z,33.63
2023-04-10T01:29:01.600Z,33.20
2023-04-10T01:31:37.402Z,31.10
2023-04-10T01:34:09.806Z,31.47
2023-04-10T01:36:41.674Z,33.87
2023-04-10T01:39:11.398Z,37.93
2023-04-10T01:41:42.907Z,37.70
2023-04-10T01:44:15.746Z,37.03
2023-04-10T01:46:45.611Z,33.03
2023-04-10T01:49:15.083Z,29.93
2023-04-10T01:51:44.595Z,32.73
2023-04-10T01:54:13.961Z,33.23
2023-04-10T01:56:42.298Z,33.17
2023-04-10T01:59:10.528Z,33.83
2023-04-10T02:01:40.125Z,33.00
2023-04-10T02:04:08.463Z,35.80
2023-04-10T02:06:44.625Z,31.93
2023-04-10T02:09:20.171Z,33.20
2023-04-10T02:11:55.811Z,34.03
2023-04-10T02:14:25.890Z,31.90
2023-04-10T02:16:57.322Z,35.37
2023-04-10T02:19:28.086Z,33.07
2023-04-10T02:21:58.090Z,32.53
2023-04-10T02:24:27.062Z,32.57
2023-04-10T02:26:55.813Z,32.63
2023-04-10T02:29:23.934Z,29.90
2023-04-10T02:31:52.125Z,35.07
2023-04-10T02:34:21.689Z,32.10
2023-04-10T02:36:49.828Z,36.63
2023-04-10T02:39:17.985Z,34.87
2023-04-10T02:41:46.479Z,35.10
2023-04-10T02:44:14.713Z,37.00
2023-04-10T02:46:43.116Z,31.63
2023-04-10T02:49:11.406Z,37.47
2023-04-10T02:51:40.942Z,43.00
2023-04-10T02:54:09.066Z,36.97
2023-04-10T02:56:37.242Z,41.00
2023-04-10T02:59:05.418Z,47.03
2023-04-10T03:01:33.833Z,48.77
2023-04-10T03:04:03.847Z,47.33
2023-04-10T03:06:32.353Z,52.17
2023-04-10T03:09:01.925Z,48.73
2023-04-10T03:11:30.586Z,47.20
2023-04-10T03:13:59.171Z,48.13
2023-04-10T03:16:27.578Z,48.50
2023-04-10T03:18:55.756Z,45.93
2023-04-10T03:21:23.893Z,50.93
2023-04-10T03:23:52.593Z,50.33
2023-04-10T03:26:23.971Z,42.10
2023-04-10T03:28:52.279Z,39.83
2023-04-10T03:31:20.564Z,39.57
2023-04-10T03:33:48.772Z,36.87
2023-04-10T03:36:16.999Z,32.07
2023-04-10T03:38:45.280Z,36.30
2023-04-10T03:41:13.541Z,36.37
2023-04-10T03:43:43.127Z,35.23
2023-04-10T03:46:11.348Z,35.80
2023-04-10T03:48:39.482Z,35.67
2023-04-10T03:51:08.229Z,34.77
2023-04-10T03:53:36.836Z,34.70
2023-04-10T03:56:05.240Z,33.37
2023-04-10T03:58:33.405Z,37.10
2023-04-10T04:01:03.245Z,34.43
2023-04-10T04:03:31.610Z,35.00
2023-04-10T04:05:59.940Z,32.90
2023-04-10T04:08:28.096Z,37.23
2023-04-10T04:10:56.288Z,38.30
2023-04-10T04:13:24.621Z,34.93
2023-04-10T04:15:52.778Z,38.77
2023-04-10T04:18:22.382Z,40.17
2023-04-10T04:20:50.552Z,37.87
2023-04-10T04:23:18.689Z,35.13
2023-04-10T04:25:46.891Z,33.67
2023-04-10T04:28:16.119Z,34.80
2023-04-10T04:30:44.337Z,40.23
2023-04-10T04:33:12.529Z,37.63
2023-04-10T04:35:42.104Z,39.63
2023-04-10T04:38:10.303Z,37.87
2023-04-10T04:40:38.489Z,41.40
2023-04-10T04:43:06.661Z,32.73
2023-04-10T04:45:39.881Z,34.60
2023-04-10T04:48:08.189Z,36.20
2023-04-10T04:50:36.510Z,35.43
2023-04-10T04:53:07.805Z,33.80
2023-04-10T04:55:39.167Z,36.23
2023-04-10T04:58:07.291Z,33.83
2023-04-10T05:00:35.457Z,36.03
2023-04-10T05:03:03.834Z,38.47
2023-04-10T05:05:32.160Z,33.77
2023-04-10T05:08:00.498Z,37.77
2023-04-10T05:10:30.116Z,35.23
2023-04-10T05:12:58.244Z,39.93
2023-04-10T05:15:26.506Z,35.53
2023-04-10T05:17:54.851Z,39.17
2023-04-10T05:20:23.046Z,37.87
2023-04-10T05:22:53.031Z,33.03
2023-04-10T05:25:21.247Z,37.27
2023-04-10T05:27:50.773Z,35.47
2023-04-10T05:30:19.005Z,38.60
2023-04-10T05:32:47.396Z,33.90
2023-04-10T05:35:15.706Z,32.87
2023-04-10T05:37:43.873Z,33.60
2023-04-10T05:40:12.267Z,34.17
2023-04-10T05:42:40.453Z,36.17
2023-04-10T05:45:10.984Z,34.97
2023-04-10T05:47:39.261Z,33.57
2023-04-10T05:50:08.153Z,30.77
2023-04-10T05:52:36.352Z,32.17
2023-04-10T05:55:04.573Z,31.50
2023-04-10T05:57:33.763Z,31.80
2023-04-10T06:00:02.044Z,32.70
2023-04-10T06:02:34.455Z,30.50
2023-04-10T06:05:02.805Z,31.53
2023-04-10T06:07:32.591Z,30.77
2023-04-10T06:10:00.898Z,29.40
2023-04-10T06:12:29.060Z,29.23
2023-04-10T06:14:57.184Z,29.83
2023-04-10T06:17:25.951Z,28.83
2023-04-10T06:19:56.701Z,26.20
2023-04-10T06:22:24.897Z,31.17
2023-04-10T06:24:53.034Z,26.17
2023-04-10T06:27:21.176Z,26.43
2023-04-10T06:29:49.349Z,25.33
2023-04-10T06:32:17.528Z,24.37
2023-04-10T06:34:46.431Z,22.43
2023-04-10T06:37:16.202Z,23.40
2023-04-10T06:39:44.375Z,23.00
2023-04-10T06:42:12.540Z,24.33
2023-04-10T06:44:40.701Z,23.63
2023-04-10T06:47:09.226Z,23.80
2023-04-10T06:49:37.459Z,25.70
2023-04-10T06:52:05.911Z,25.17
2023-04-10T06:54:35.495Z,23.77
2023-04-10T06:57:04.012Z,25.20
2023-04-10T06:59:34.791Z,24.50
2023-04-10T07:02:03.937Z,24.60
2023-04-10T07:04:32.884Z,25.20
2023-04-10T07:07:01.416Z,23.53
2023-04-10T07:09:31.197Z,23.20
2023-04-10T07:12:00.886Z,25.30
2023-04-10T07:14:29.038Z,26.87
2023-04-10T07:16:57.173Z,24.27
2023-04-10T07:19:25.784Z,26.97
2023-04-10T07:21:54.028Z,21.27
2023-04-10T07:24:22.184Z,18.30
2023-04-10T07:26:50.376Z,17.27
2023-04-10T07:29:19.897Z,17.83
2023-04-10T07:31:48.206Z,17.55
2023-04-10T07:34:16.420Z,20.25
2023-04-10T07:36:46.029Z,19.27
2023-04-10T07:39:14.334Z,19.13
2023-04-10T07:41:45.434Z,20.13
2023-04-10T07:44:14.435Z,19.98
2023-04-10T07:46:44.179Z,22.52
2023-04-10T07:49:12.454Z,19.48
2023-04-10T07:51:40.867Z,16.80
2023-04-10T07:54:09.041Z,16.70
2023-04-10T07:56:37.306Z,17.73
2023-04-10T07:59:05.563Z,16.92
2023-04-10T08:01:34.003Z,17.75
2023-04-10T08:04:05.523Z,17.00
2023-04-10T08:06:34.242Z,17.60
2023-04-10T08:09:02.621Z,14.63
2023-04-10T08:11:34.166Z,16.13
2023-04-10T08:14:05.489Z,18.30
2023-04-10T08:16:35.983Z,15.90
2023-04-10T08:19:05.584Z,17.88
2023-04-10T08:21:33.750Z,18.67
2023-04-10T08:24:03.277Z,17.70
2023-04-10T08:26:31.622Z,17.50
2023-04-10T08:29:01.327Z,17.52
2023-04-10T08:31:30.176Z,17.33
2023-04-10T08:33:59.049Z,17.23
2023-04-10T08:36:29.240Z,15.25
2023-04-10T08:38:57.418Z,14.00
2023-04-10T08:41:25.589Z,13.43
2023-04-10T08:43:54.110Z,11.85
2023-04-10T08:46:24.952Z,11.80
2023-04-10T08:48:59.987Z,10.43
2023-04-10T08:51:33.762Z,11.82
2023-04-10T08:54:07.932Z,10.52
2023-04-10T08:56:38.900Z,12.20
2023-04-10T08:59:08.766Z,12.13
2023-04-10T09:01:37.156Z,10.55
2023-04-10T09:04:06.130Z,11.50
2023-04-10T09:06:35.729Z,8.57
2023-04-10T09:09:03.864Z,10.18
2023-04-10T09:12:04.353Z,8.88
2023-04-10T09:14:34.106Z,11.00
2023-04-10T09:17:19.616Z,8.23
2023-04-10T09:19:49.462Z,9.13
2023-04-10T09:22:19.543Z,8.02
2023-04-10T09:24:48.710Z,10.48
2023-04-10T09:27:31.975Z,8.30
2023-04-10T09:30:00.527Z,12.45
2023-04-10T09:32:40.403Z,10.45
2023-04-10T09:35:09.946Z,9.57
2023-04-10T09:37:40.669Z,14.57
2023-04-10T09:40:21.600Z,9.73
2023-04-10T09:42:49.765Z,10.35
2023-04-10T09:45:20.184Z,10.40
2023-04-10T09:48:04.032Z,8.48
2023-04-10T09:50:41.784Z,13.75
2023-04-10T09:53:12.406Z,9.38
2023-04-10T09:55:41.669Z,10.25
2023-04-10T09:58:11.001Z,9.13
2023-04-10T10:00:42.261Z,15.55
2023-04-10T10:03:12.278Z,8.93
2023-04-10T10:05:42.591Z,8.48
2023-04-10T10:08:14.013Z,7.88
2023-04-10T10:10:47.067Z,9.52
2023-04-10T10:13:21.303Z,8.43
2023-04-10T10:15:55.768Z,10.18
2023-04-10T10:18:33.724Z,6.38
2023-04-10T10:21:03.697Z,6.32
2023-04-10T10:23:34.460Z,7.60
2023-04-10T10:26:06.305Z,7.75
2023-04-10T10:28:35.272Z,11.38
2023-04-10T10:31:05.295Z,8.40
2023-04-10T10:33:36.595Z,10.43
2023-04-10T10:36:05.920Z,11.63
2023-04-10T10:38:38.852Z,12.93
2023-04-10T10:41:16.514Z,8.80
2023-04-10T10:43:54.677Z,11.05
2023-04-10T10:46:33.738Z,7.40
2023-04-10T10:49:02.272Z,7.65
2023-04-10T10:51:47.839Z,5.95
2023-04-10T10:54:35.467Z,9.30
2023-04-10T10:57:06.455Z,8.52
2023-04-10T10:59:55.649Z,6.15
2023-04-10T11:02:24.515Z,5.75
2023-04-10T11:04:52.787Z,7.47
2023-04-10T11:07:20.962Z,6.40
2023-04-10T11:09:54.646Z,5.82
2023-04-10T11:12:24.712Z,6.55
2023-04-10T11:15:00.609Z,8.75
2023-04-10T11:17:54.351Z,6.68
2023-04-10T11:20:27.181Z,7.57
2023-04-10T11:23:12.872Z,5.13
2023-04-10T11:25:52.581Z,6.80
2023-04-10T11:28:37.655Z,6.28
2023-04-10T11:31:22.796Z,7.15
2023-04-10T11:34:06.199Z,6.88
2023-04-10T11:36:35.171Z,8.20
2023-04-10T11:39:05.874Z,7.65
2023-04-10T11:41:37.449Z,5.32
2023-04-10T11:44:07.345Z,7.95
2023-04-10T11:46:38.297Z,6.88
2023-04-10T11:49:09.755Z,8.90
2023-04-10T11:51:39.087Z,7.05
2023-04-10T11:54:10.584Z,5.68
2023-04-10T11:56:45.814Z,5.78
2023-04-10T11:59:17.644Z,6.13
2023-04-10T12:01:48.488Z,5.80
2023-04-10T12:04:20.097Z,5.72
2023-04-10T12:06:49.501Z,7.78
2023-04-10T12:09:22.129Z,7.75
2023-04-10T12:11:55.421Z,6.45
2023-04-10T12:14:24.498Z,6.47
2023-04-10T12:16:53.041Z,4.65
2023-04-10T12:19:23.597Z,6.00
2023-04-10T12:21:51.776Z,4.22
2023-04-10T12:24:46.533Z,6.75
2023-04-10T12:27:22.181Z,4.90
2023-04-10T12:29:52.285Z,6.35
2023-04-10T12:32:22.264Z,6.63
2023-04-10T12:34:57.352Z,3.70
2023-04-10T12:37:25.947Z,7.30
2023-04-10T12:39:54.156Z,8.23
2023-04-10T12:42:27.192Z,6.47
2023-04-10T12:44:56.644Z,4.53
2023-04-10T12:47:25.573Z,9.77
2023-04-10T12:50:07.702Z,5.07
2023-04-10T12:52:36.376Z,5.85
2023-04-10T12:55:13.046Z,8.70
2023-04-10T12:57:43.319Z,4.93
2023-04-10T13:00:12.921Z,9.25
2023-04-10T13:02:41.978Z,5.57
2023-04-10T13:05:11.155Z,8.27
2023-04-10T13:07:39.993Z,6.70
2023-04-10T13:10:09.680Z,4.05
2023-04-10T13:12:38.870Z,4.30
2023-04-10T13:15:10.765Z,3.85
2023-04-10T13:17:39.977Z,4.57
2023-04-10T13:20:10.380Z,4.07
2023-04-10T13:22:38.575Z,3.60
2023-04-10T13:25:07.367Z,4.90
2023-04-10T13:27:35.530Z,4.00
2023-04-10T13:30:03.724Z,6.88
2023-04-10T13:32:33.260Z,7.10
2023-04-10T13:35:01.499Z,4.43
2023-04-10T13:37:29.658Z,5.93
2023-04-10T13:39:57.803Z,5.50
2023-04-10T13:42:26.013Z,4.30
2023-04-10T13:44:54.154Z,5.03
2023-04-10T13:47:22.362Z,5.70
2023-04-10T13:49:51.894Z,4.35
2023-04-10T13:52:20.014Z,5.10
2023-04-10T13:54:48.228Z,6.22
2023-04-10T13:57:16.360Z,8.25
2023-04-10T13:59:44.486Z,5.47
2023-04-10T14:02:12.679Z,5.00
2023-04-10T14:04:41.184Z,3.92
2023-04-10T14:07:11.800Z,6.18
2023-04-10T14:09:40.348Z,4.55
2023-04-10T14:12:08.531Z,3.92
2023-04-10T14:14:36.918Z,5.13
2023-04-10T14:17:05.299Z,3.78
2023-04-10T14:19:35.142Z,3.03
2023-04-10T14:22:03.306Z,4.82
2023-04-10T14:24:32.921Z,3.88
2023-04-10T14:27:01.963Z,4.07
2023-04-10T14:29:37.341Z,7.15
2023-04-10T14:32:08.901Z,7.13
2023-04-10T14:34:37.059Z,7.03
2023-04-10T14:37:05.253Z,7.93
2023-04-10T14:39:36.507Z,3.97
2023-04-10T14:42:04.812Z,5.32
2023-04-10T14:44:32.993Z,3.17
2023-04-10T14:47:01.233Z,3.35
2023-04-10T14:49:29.388Z,4.00
2023-04-10T14:51:57.586Z,2.97
2023-04-10T14:54:25.838Z,3.38
2023-04-10T14:56:57.159Z,5.63
2023-04-10T14:59:25.413Z,3.42
2023-04-10T15:01:53.992Z,2.63
2023-04-10T15:04:22.480Z,2.85
2023-04-10T15:06:51.276Z,2.95
2023-04-10T15:09:21.343Z,4.03
2023-04-10T15:11:50.070Z,3.97
2023-04-10T15:14:19.622Z,3.75
2023-04-10T15:16:48.252Z,3.80
2023-04-10T15:19:16.457Z,4.80
2023-04-10T15:21:44.616Z,3.25
2023-04-10T15:24:12.728Z,4.47
2023-04-10T15:26:45.138Z,2.92
2023-04-10T15:29:13.872Z,4.53
2023-04-10T15:31:43.451Z,5.15
2023-04-10T15:34:11.598Z,5.43
2023-04-10T15:36:39.757Z,4.53
2023-04-10T15:39:08.620Z,8.30
2023-04-10T15:41:36.801Z,5.65
2023-04-10T15:44:05.108Z,5.55
2023-04-10T15:46:34.167Z,7.47
2023-04-10T15:49:03.781Z,5.65
2023-04-10T15:51:32.297Z,5.68
2023-04-10T15:54:00.514Z,5.18
2023-04-10T15:56:28.701Z,5.85
2023-04-10T15:58:56.920Z,4.80
2023-04-10T16:01:25.096Z,5.05
2023-04-10T16:03:53.775Z,6.60
2023-04-10T16:06:25.833Z,5.38
2023-04-10T16:08:54.232Z,8.00
2023-04-10T16:11:22.475Z,8.95
2023-04-10T16:13:50.685Z,5.47
2023-04-10T16:16:19.690Z,9.65
2023-04-10T16:18:47.878Z,5.90
2023-04-10T16:21:16.134Z,7.85
2023-04-10T16:23:45.736Z,5.93
2023-04-10T16:26:13.938Z,6.60
2023-04-10T16:28:42.081Z,5.43
2023-04-10T16:31:10.362Z,6.35
2023-04-10T16:33:38.622Z,3.95
2023-04-10T16:36:08.078Z,8.20
2023-04-10T16:38:36.384Z,6.03
2023-04-10T16:41:06.942Z,10.23
2023-04-10T16:43:35.822Z,7.40
2023-04-10T16:46:04.008Z,8.05
2023-04-10T16:48:33.574Z,7.15
2023-04-10T16:51:06.164Z,5.65
2023-04-10T16:53:36.041Z,7.10
2023-04-10T16:56:05.847Z,11.98
2023-04-10T16:58:36.695Z,18.17
2023-04-10T17:01:15.718Z,13.93
2023-04-10T17:03:43.934Z,8.27
2023-04-10T17:06:12.154Z,6.07
2023-04-10T17:08:40.439Z,6.38
2023-04-10T17:11:10.231Z,7.53
2023-04-10T17:13:38.534Z,9.18
2023-04-10T17:16:07.715Z,5.88
2023-04-10T17:18:35.852Z,10.15
2023-04-10T17:21:04.116Z,8.43
2023-04-10T17:23:32.461Z,8.23
2023-04-10T17:26:00.740Z,13.52
2023-04-10T17:28:30.268Z,18.00
2023-04-10T17:30:58.386Z,11.20
2023-04-10T17:33:26.758Z,11.50
2023-04-10T17:35:57.900Z,12.63
2023-04-10T17:38:27.284Z,10.00
2023-04-10T17:40:55.481Z,8.82
2023-04-10T17:43:23.765Z,12.43
2023-04-10T17:45:53.364Z,10.98
2023-04-10T17:48:21.598Z,11.45
2023-04-10T17:50:51.558Z,11.90
2023-04-10T17:53:22.208Z,11.07
2023-04-10T17:55:50.441Z,10.73
2023-04-10T17:58:18.596Z,10.73
2023-04-10T18:00:48.216Z,10.23
2023-04-10T18:03:19.163Z,12.35
2023-04-10T18:05:47.464Z,9.43
2023-04-10T18:08:15.646Z,10.77
2023-04-10T18:10:45.080Z,11.20
2023-04-10T18:13:13.297Z,9.68
2023-04-10T18:15:41.523Z,10.57
2023-04-10T18:18:09.841Z,12.38
2023-04-10T18:20:39.493Z,14.10
2023-04-10T18:23:08.044Z,13.13
2023-04-10T18:25:36.282Z,16.48
2023-04-10T18:28:14.474Z,14.65
2023-04-10T18:30:43.712Z,12.82
2023-04-10T18:33:11.909Z,13.85
2023-04-10T18:35:41.545Z,15.73
2023-04-10T18:38:09.711Z,12.73
2023-04-10T18:40:37.877Z,14.85
2023-04-10T18:43:06.085Z,13.70
2023-04-10T18:45:36.467Z,15.50
2023-04-10T18:48:04.852Z,24.40
2023-04-10T18:50:37.891Z,25.40
2023-04-10T18:53:07.694Z,27.92
2023-04-10T18:55:35.875Z,22.73
2023-04-10T18:58:04.076Z,20.15
2023-04-10T19:00:34.116Z,15.75
2023-04-10T19:03:02.531Z,18.02
2023-04-10T19:05:33.515Z,14.85
2023-04-10T19:08:04.597Z,23.73
2023-04-10T19:10:34.617Z,22.02
2023-04-10T19:13:06.118Z,20.55
2023-04-10T19:15:40.461Z,21.50
2023-04-10T19:18:09.235Z,16.17
2023-04-10T19:20:50.314Z,18.00
2023-04-10T19:23:20.508Z,13.30
2023-04-10T19:25:52.905Z,15.40
2023-04-10T19:28:22.370Z,15.43
2023-04-10T19:30:51.849Z,12.70
2023-04-10T19:33:20.837Z,17.45
2023-04-10T19:35:49.080Z,16.35
2023-04-10T19:38:17.236Z,14.02
2023-04-10T19:40:45.529Z,15.70
2023-04-10T19:43:15.083Z,16.55
2023-04-10T19:45:43.279Z,17.73
2023-04-10T19:48:12.033Z,19.55
2023-04-10T19:50:40.198Z,18.10
2023-04-10T19:53:12.825Z,20.52
2023-04-10T19:55:41.271Z,27.50
2023-04-10T19:58:17.037Z,25.42
2023-04-10T20:00:55.575Z,28.98
2023-04-10T20:03:27.237Z,26.73
2023-04-10T20:05:55.557Z,30.02
2023-04-10T20:08:23.778Z,30.15
2023-04-10T20:10:51.904Z,26.23
2023-04-10T20:13:20.089Z,23.23
2023-04-10T20:15:48.437Z,16.88
2023-04-10T20:18:18.097Z,21.77
2023-04-10T20:20:46.406Z,15.32
2023-04-10T20:23:14.627Z,20.77
2023-04-10T20:25:42.874Z,17.17
2023-04-10T20:28:11.102Z,16.23
2023-04-10T20:30:39.482Z,14.63
2023-04-10T20:33:07.714Z,15.07
2023-04-10T20:35:37.429Z,17.90
2023-04-10T20:38:05.652Z,18.73
2023-04-10T20:40:33.807Z,23.20
2023-04-10T20:43:01.989Z,22.90
2023-04-10T20:45:30.155Z,24.17
2023-04-10T20:47:59.013Z,26.00
2023-04-10T20:50:27.197Z,24.40
2023-04-10T20:52:56.745Z,24.63
2023-04-10T20:55:24.878Z,29.17
2023-04-10T20:57:53.271Z,28.42
2023-04-10T21:00:21.592Z,22.63
2023-04-10T21:02:49.828Z,24.27
2023-04-10T21:05:18.129Z,22.38
2023-04-10T21:07:46.406Z,22.88
2023-04-10T21:10:15.875Z,23.35
2023-04-10T21:12:44.353Z,25.73
2023-04-10T21:15:12.670Z,20.75
2023-04-10T21:17:40.843Z,25.50
2023-04-10T21:20:09.666Z,25.40
2023-04-10T21:22:37.771Z,23.60
2023-04-10T21:25:06.632Z,32.40
2023-04-10T21:27:36.120Z,26.55
2023-04-10T21:30:04.291Z,25.20
2023-04-10T21:32:32.376Z,25.35
2023-04-10T21:35:00.652Z,29.88
2023-04-10T21:37:28.750Z,27.75
2023-04-10T21:39:56.817Z,32.67
2023-04-10T21:42:24.949Z,39.20
2023-04-10T21:44:54.683Z,32.15
2023-04-10T21:47:22.795Z,34.03
2023-04-10T21:49:50.864Z,28.83
2023-04-10T21:52:18.932Z,30.30
2023-04-10T21:54:47.017Z,29.50
2023-04-10T21:57:15.133Z,26.80
2023-04-10T21:59:43.259Z,29.95
2023-04-10T22:02:13.276Z,30.05
2023-04-10T22:04:47.931Z,30.45
2023-04-10T22:07:22.004Z,27.13
2023-04-10T22:09:50.360Z,33.45
2023-04-10T22:12:18.558Z,29.02
2023-04-10T22:14:46.682Z,30.98
2023-04-10T22:17:16.227Z,31.90
2023-04-10T22:19:44.377Z,35.13
2023-04-10T22:22:12.503Z,44.72
2023-04-10T22:24:40.671Z,39.40
2023-04-10T22:27:09.168Z,44.63
2023-04-10T22:29:37.509Z,33.13
2023-04-10T22:32:05.864Z,39.55
2023-04-10T22:34:35.455Z,42.67
2023-04-10T22:37:03.605Z,43.20
2023-04-10T22:39:31.759Z,42.03
2023-04-10T22:41:59.918Z,41.10
2023-04-10T22:44:28.100Z,41.73
2023-04-10T22:46:56.299Z,41.67
2023-04-10T22:49:24.460Z,39.20
2023-04-10T22:51:53.991Z,42.55
2023-04-10T22:54:22.145Z,38.03
2023-04-10T22:56:50.789Z,38.03
2023-04-10T22:59:19.481Z,38.80
2023-04-10T23:01:47.936Z,41.35
2023-04-10T23:04:16.528Z,47.92
2023-04-10T23:06:44.776Z,43.13
2023-04-10T23:09:14.359Z,42.73
2023-04-10T23:11:42.537Z,45.10
2023-04-10T23:14:10.711Z,41.07
2023-04-10T23:16:38.880Z,41.73
2023-04-10T23:19:07.173Z,44.50
2023-04-10T23:21:35.468Z,40.70
2023-04-10T23:24:03.683Z,38.13
2023-04-10T23:26:33.249Z,38.60
2023-04-10T23:29:01.725Z,44.57
2023-04-10T23:31:29.914Z,42.43
2023-04-10T23:33:58.109Z,43.43
2023-04-10T23:36:27.187Z,42.87
2023-04-10T23:38:55.588Z,47.63
2023-04-10T23:41:23.862Z,46.23
2023-04-10T23:43:53.406Z,51.43
2023-04-10T23:46:21.636Z,39.77
2023-04-10T23:48:49.790Z,40.63
2023-04-10T23:51:17.970Z,42.90
2023-04-10T23:53:46.091Z,47.73
2023-04-10T23:56:14.234Z,42.67
2023-04-10T23:58:42.363Z,41.80
